Time;durP1;ratioP1;P1;durP2;ratioP2;P2;SDS_P1;SDS_P2;PMS_P1;PMS_P2;Temp;Humidity;BMP_temperature;BMP_pressure;BME280_temperature;BME280_humidity;BME280_pressure;Samples;Min_cycle;Max_cycle;Signal;HPM_P1;HPM_P2
2022/03/23 00:01:23;;;;;;;24.52;13.52;;;;;;;2.61;53.64;102150.97;4933067;29;20366;-71
2022/03/23 00:03:49;;;;;;;20.63;13.85;;;;;;;2.48;53.45;102142.44;4933668;29;20131;-71
2022/03/23 00:06:14;;;;;;;19.23;12.73;;;;;;;2.42;53.45;102141.31;4933897;29;20040;-71
2022/03/23 00:08:40;;;;;;;23.25;14.30;;;;;;;2.42;53.82;102145.63;4933640;29;20040;-71
2022/03/23 00:11:06;;;;;;;22.90;14.18;;;;;;;2.44;53.85;102143.06;4933121;29;20098;-72
2022/03/23 00:13:32;;;;;;;20.15;13.52;;;;;;;2.45;54.02;102145.78;4933522;29;20106;-71
2022/03/23 00:15:58;;;;;;;19.35;13.20;;;;;;;2.42;54.61;102141.31;4933183;29;20040;-72
2022/03/23 00:18:24;;;;;;;21.77;13.25;;;;;;;2.32;54.78;102133.81;4933238;29;20031;-71
2022/03/23 00:20:49;;;;;;;23.08;13.63;;;;;;;2.29;55.05;102145.78;4933469;29;20507;-71
2022/03/23 00:23:14;;;;;;;19.80;13.35;;;;;;;2.28;54.99;102136.16;4936911;29;20043;-72
2022/03/23 00:25:40;;;;;;;18.10;12.20;;;;;;;2.22;55.15;102136.75;4936498;29;20035;-72
2022/03/23 00:28:05;;;;;;;19.60;11.43;;;;;;;2.15;55.75;102142.47;4936858;29;20153;-71
2022/03/23 00:30:34;;;;;;;21.38;13.55;;;;;;;2.09;55.54;102135.19;4935740;29;20123;-71
2022/03/23 00:33:02;;;;;;;19.65;12.52;;;;;;;2.07;55.78;102135.91;4936671;29;20511;-71
2022/03/23 00:35:28;;;;;;;21.80;12.02;;;;;;;2.04;55.41;102136.63;4933604;29;20039;-71
2022/03/23 00:37:55;;;;;;;22.85;11.68;;;;;;;2.03;55.59;102128.75;4935544;29;20123;-71
2022/03/23 00:40:21;;;;;;;19.98;11.38;;;;;;;2.04;56.40;102136.63;4936986;29;20086;-71
2022/03/23 00:42:47;;;;;;;23.17;13.02;;;;;;;2.04;55.60;102130.53;4935136;29;20443;-71
2022/03/23 00:45:12;;;;;;;23.17;14.43;;;;;;;2.05;56.47;102132.34;4935553;29;20067;-71
2022/03/23 00:47:38;;;;;;;19.77;12.68;;;;;;;2.04;56.56;102125.34;4935467;29;20059;-71
2022/03/23 00:50:05;;;;;;;21.48;13.40;;;;;;;2.05;56.13;102125.44;4936314;29;20039;-71
2022/03/23 00:52:35;;;;;;;19.33;12.35;;;;;;;2.10;56.60;102129.19;4936204;29;20758;-71
2022/03/23 00:55:00;;;;;;;22.58;12.95;;;;;;;2.12;56.27;102124.94;4935167;29;20443;-71
2022/03/23 00:57:26;;;;;;;17.88;11.82;;;;;;;2.18;55.88;102124.38;4936445;29;20039;-71
2022/03/23 00:59:51;;;;;;;19.58;11.52;;;;;;;2.18;55.45;102124.38;4936559;29;20527;-71
2022/03/23 01:02:16;;;;;;;21.80;12.00;;;;;;;2.14;56.25;102122.41;4936092;29;20032;-71
2022/03/23 01:04:42;;;;;;;18.63;13.30;;;;;;;2.07;56.68;102122.88;4935187;29;20086;-71
2022/03/23 01:07:07;;;;;;;17.70;11.82;;;;;;;1.98;56.85;102120.69;4936365;29;20086;-71
2022/03/23 01:09:35;;;;;;;19.35;11.07;;;;;;;1.89;57.61;102122.81;4936270;29;20114;-71
2022/03/23 01:12:00;;;;;;;19.70;12.63;;;;;;;1.82;59.29;102123.28;4935790;29;20574;-71
2022/03/23 01:14:26;;;;;;;19.60;12.48;;;;;;;1.73;59.56;102119.38;4934938;29;20564;-71
2022/03/23 01:16:52;;;;;;;20.70;13.20;;;;;;;1.72;59.96;102117.56;4935015;29;20395;-71
2022/03/23 01:19:22;;;;;;;19.90;11.98;;;;;;;1.69;61.24;102116.50;4936046;29;20035;-71
2022/03/23 01:21:48;;;;;;;19.48;13.07;;;;;;;1.60;62.04;102115.97;4935771;29;20070;-71
2022/03/23 01:24:13;;;;;;;18.25;11.38;;;;;;;1.50;61.20;102120.69;4936044;29;20535;-71
2022/03/23 01:26:38;;;;;;;20.38;12.07;;;;;;;1.42;62.78;102121.97;4934768;29;20040;-71
2022/03/23 01:29:04;;;;;;;16.67;10.55;;;;;;;1.35;61.54;102118.94;4934628;29;20038;-71
2022/03/23 01:31:30;;;;;;;21.83;11.38;;;;;;;1.33;61.60;102112.75;4934328;29;20035;-71
2022/03/23 01:33:59;;;;;;;20.60;12.23;;;;;;;1.33;61.54;102116.22;4935355;29;20035;-71
2022/03/23 01:36:31;;;;;;;18.70;10.88;;;;;;;1.25;61.99;102112.28;4935789;29;20051;-71
2022/03/23 01:38:58;;;;;;;16.50;11.38;;;;;;;1.20;61.52;102114.63;4928027;29;20020;-71
2022/03/23 01:41:24;;;;;;;18.73;11.32;;;;;;;1.11;62.11;102108.91;4931312;29;20142;-71
2022/03/23 01:43:50;;;;;;;18.05;11.50;;;;;;;1.09;61.97;102108.81;4932510;29;20078;-71
2022/03/23 01:46:18;;;;;;;22.30;12.10;;;;;;;1.08;62.91;102106.16;4935457;29;20059;-71
2022/03/23 01:48:44;;;;;;;19.58;10.40;;;;;;;1.11;61.77;102108.91;4935514;29;20479;-71
2022/03/23 01:51:10;;;;;;;17.87;11.30;;;;;;;1.09;62.05;102103.63;4930875;29;20585;-71
2022/03/23 01:53:36;;;;;;;19.90;10.63;;;;;;;1.05;62.42;102101.66;4932657;29;20043;-71
2022/03/23 01:56:02;;;;;;;17.30;11.25;;;;;;;1.00;61.63;102099.63;4935303;29;20122;-71
2022/03/23 01:58:28;;;;;;;20.23;12.60;;;;;;;0.88;62.13;102105.88;4918097;29;20183;-70
2022/03/23 02:00:53;;;;;;;15.30;10.77;;;;;;;0.87;61.90;102100.59;4935137;29;20419;-71
2022/03/23 02:03:18;;;;;;;17.33;11.85;;;;;;;0.85;61.33;102095.31;4935211;29;20036;-71
2022/03/23 02:05:44;;;;;;;17.47;10.67;;;;;;;0.86;61.24;102096.19;4933783;29;20387;-71
2022/03/23 02:08:11;;;;;;;18.45;11.45;;;;;;;0.87;61.28;102096.28;4932895;29;20407;-71
2022/03/23 02:10:38;;;;;;;19.95;11.93;;;;;;;0.87;61.61;102098.91;4933828;29;20035;-71
2022/03/23 02:13:12;;;;;;;18.17;12.23;;;;;;;0.90;60.83;102089.50;4933491;29;20059;-71
2022/03/23 02:15:38;;;;;;;18.85;11.02;;;;;;;0.90;61.20;102092.09;4933860;29;20039;-71
2022/03/23 02:18:06;;;;;;;19.00;11.27;;;;;;;0.90;61.12;102084.28;4935096;29;20039;-71
2022/03/23 02:20:31;;;;;;;19.75;12.00;;;;;;;0.88;61.24;102087.69;4933781;29;20055;-71
2022/03/23 02:22:57;;;;;;;18.75;11.40;;;;;;;0.87;61.61;102085.91;4934716;29;20032;-71
2022/03/23 02:25:25;;;;;;;23.42;12.15;;;;;;;0.90;61.40;102087.78;4934910;29;20042;-71
2022/03/23 02:27:52;;;;;;;18.77;11.55;;;;;;;0.91;61.62;102086.97;4934114;29;20035;-71
2022/03/23 02:30:18;;;;;;;19.10;12.63;;;;;;;0.92;61.47;102080.06;4934750;29;20030;-71
2022/03/23 02:32:44;;;;;;;17.57;11.00;;;;;;;0.94;61.76;102088.84;4934523;29;20031;-71
2022/03/23 02:35:11;;;;;;;20.13;10.93;;;;;;;0.90;60.96;102081.69;4934240;29;20416;-71
2022/03/23 02:37:38;;;;;;;16.52;9.68;;;;;;;0.83;61.72;102076.13;4931845;29;20031;-71
2022/03/23 02:40:04;;;;;;;19.23;10.77;;;;;;;0.81;61.12;102079.44;4934630;29;20066;-71
2022/03/23 02:42:29;;;;;;;20.20;12.05;;;;;;;0.78;62.03;102087.06;4934191;29;20031;-71
2022/03/23 02:44:55;;;;;;;16.93;10.97;;;;;;;0.78;61.67;102081.84;4932565;29;20040;-71
2022/03/23 02:47:20;;;;;;;17.80;11.70;;;;;;;0.79;62.03;102075.88;4934503;29;20031;-71
2022/03/23 02:49:46;;;;;;;18.33;11.00;;;;;;;0.80;62.03;102075.94;4934556;29;20046;-71
2022/03/23 02:52:11;;;;;;;20.83;11.18;;;;;;;0.83;61.68;102086.50;4933508;29;20126;-71
2022/03/23 03:03:10;;;;;;;21.23;10.27;;;;;;;0.86;61.23;102078.00;4934028;29;20126;-71
2022/03/23 03:05:35;;;;;;;18.83;11.40;;;;;;;0.82;61.04;102073.44;4933081;29;20130;-71
2022/03/23 03:10:44;;;;;;;19.73;12.27;;;;;;;0.83;61.54;102086.50;4931744;29;20491;-71
2022/03/23 03:13:09;;;;;;;20.50;12.00;;;;;;;0.75;61.74;102085.19;4933793;29;20127;-71
2022/03/23 03:15:35;;;;;;;18.23;11.00;;;;;;;0.75;62.51;102086.88;4934155;29;20066;-71
2022/03/23 03:18:00;;;;;;;17.50;11.03;;;;;;;0.77;62.18;102086.16;4933967;29;20399;-71
2022/03/23 03:20:27;;;;;;;19.75;10.38;;;;;;;0.78;62.07;102084.47;4934176;29;20114;-71
2022/03/23 03:22:53;;;;;;;25.17;11.98;;;;;;;0.76;61.27;102088.66;4933859;29;20068;-71
2022/03/23 03:25:20;;;;;;;21.42;12.10;;;;;;;0.77;61.84;102086.16;4934050;29;20040;-71
2022/03/23 03:27:46;;;;;;;19.42;11.57;;;;;;;0.79;62.02;102084.56;4933952;29;20031;-71
2022/03/23 03:30:14;;;;;;;19.40;12.45;;;;;;;0.80;61.16;102083.75;4934022;29;20036;-71
2022/03/23 03:32:40;;;;;;;18.70;11.95;;;;;;;0.79;60.97;102081.97;4933657;29;20063;-71
2022/03/23 03:35:07;;;;;;;20.55;13.13;;;;;;;0.77;61.91;102091.38;4934003;29;20054;-71
2022/03/23 03:37:34;;;;;;;17.63;11.32;;;;;;;0.79;62.19;102086.28;4930188;29;20031;-71
2022/03/23 03:40:00;;;;;;;17.27;11.18;;;;;;;0.81;62.02;102077.75;4933909;29;20035;-71
2022/03/23 03:42:26;;;;;;;18.33;11.57;;;;;;;0.81;61.74;102082.97;4933779;29;20473;-71
2022/03/23 03:44:52;;;;;;;21.25;13.27;;;;;;;0.83;61.56;102086.50;4934062;29;20128;-71
2022/03/23 03:47:19;;;;;;;19.55;12.80;;;;;;;0.81;61.94;102084.63;4933801;29;20126;-71
2022/03/23 03:49:44;;;;;;;18.87;11.80;;;;;;;0.78;61.78;102087.94;4933879;29;20521;-71
2022/03/23 03:52:09;;;;;;;22.88;12.60;;;;;;;0.71;61.36;102091.00;4933515;29;20036;-71
2022/03/23 03:54:35;;;;;;;18.35;11.32;;;;;;;0.67;61.60;102094.22;4933384;29;20047;-71
2022/03/23 03:57:00;;;;;;;20.17;11.98;;;;;;;0.67;61.66;102089.03;4935605;29;20059;-71
2022/03/23 03:59:25;;;;;;;17.90;11.43;;;;;;;0.69;61.34;102092.63;4937430;29;20078;-71
2022/03/23 04:01:51;;;;;;;18.10;10.75;;;;;;;0.71;62.06;102093.63;4937177;29;20043;-71
2022/03/23 04:04:16;;;;;;;16.60;11.10;;;;;;;0.74;61.18;102095.50;4937579;29;20043;-71
2022/03/23 04:06:42;;;;;;;16.13;10.20;;;;;;;0.73;61.46;102099.78;4937597;29;20095;-71
2022/03/23 04:09:07;;;;;;;19.48;11.95;;;;;;;0.68;61.02;102100.31;4935387;29;20123;-71
2022/03/23 04:11:32;;;;;;;19.15;10.73;;;;;;;0.55;61.49;102093.50;4936918;29;20039;-71
2022/03/23 04:13:58;;;;;;;21.20;12.50;;;;;;;0.49;62.38;102098.34;4937287;29;20046;-71
2022/03/23 04:16:23;;;;;;;18.77;11.05;;;;;;;0.51;61.79;102100.22;4937266;29;20043;-71
2022/03/23 04:18:49;;;;;;;26.07;16.07;;;;;;;0.53;61.76;102097.72;4937049;29;20031;-71
2022/03/23 04:21:14;;;;;;;20.70;13.53;;;;;;;0.53;61.94;102103.81;4936704;29;20465;-71
2022/03/23 04:23:40;;;;;;;20.23;14.07;;;;;;;0.56;61.46;102101.38;4936916;29;20316;-72
2022/03/23 04:26:05;;;;;;;23.38;12.82;;;;;;;0.52;61.97;102103.72;4937101;29;20044;-71
2022/03/23 04:28:31;;;;;;;18.42;11.85;;;;;;;0.40;63.39;102104.78;4937272;29;20032;-71
2022/03/23 04:30:57;;;;;;;19.60;11.50;;;;;;;0.35;62.21;102110.50;4936704;29;20126;-71
2022/03/23 04:33:22;;;;;;;20.90;14.10;;;;;;;0.33;62.22;102102.59;4936889;29;20075;-71
2022/03/23 04:35:47;;;;;;;20.50;13.30;;;;;;;0.33;62.87;102107.78;4936911;29;20043;-71
2022/03/23 04:38:13;;;;;;;20.87;12.43;;;;;;;0.31;61.92;102106.81;4929917;29;20490;-71
2022/03/23 04:40:38;;;;;;;22.97;13.93;;;;;;;0.31;62.56;102113.69;4934696;29;20035;-71
2022/03/23 04:43:04;;;;;;;19.33;12.30;;;;;;;0.25;63.02;102110.75;4935711;29;20032;-71
2022/03/23 04:45:29;;;;;;;18.67;12.17;;;;;;;0.14;62.50;102113.56;4936549;29;20035;-71
2022/03/23 04:47:54;;;;;;;19.13;11.67;;;;;;;0.08;62.98;102117.47;4932080;29;20028;-71
2022/03/23 04:50:20;;;;;;;18.77;11.57;;;;;;;0.00;63.02;102111.84;4935328;29;20498;-71
2022/03/23 04:52:47;;;;;;;26.53;13.30;;;;;;;-0.01;63.55;102116.13;4936036;29;20043;-71
2022/03/23 04:55:14;;;;;;;21.30;13.07;;;;;;;0.02;63.11;102114.53;4936623;29;20075;-71
2022/03/23 04:57:39;;;;;;;18.93;12.37;;;;;;;0.03;62.88;102113.69;4936279;29;20062;-71
2022/03/23 05:00:10;;;;;;;22.33;12.43;;;;;;;0.01;63.80;102116.22;4936510;29;20510;-71
2022/03/23 05:02:40;;;;;;;19.60;12.57;;;;;;;-0.04;64.31;102115.94;4932740;29;20048;-71
2022/03/23 05:05:11;;;;;;;20.17;12.00;;;;;;;-0.08;65.38;102108.78;4934513;29;20059;-71
2022/03/23 05:07:37;;;;;;;21.20;12.90;;;;;;;-0.07;64.34;102112.25;4934221;29;20043;-72
2022/03/23 05:10:03;;;;;;;20.93;13.77;;;;;;;-0.05;63.87;102115.84;4935758;29;20114;-74
2022/03/23 05:12:29;;;;;;;21.53;13.57;;;;;;;-0.01;64.69;102120.41;4935367;29;20527;-71
2022/03/23 05:14:54;;;;;;;24.67;15.23;;;;;;;0.04;64.15;102121.59;4935862;29;20038;-71
2022/03/23 05:17:20;;;;;;;22.47;14.27;;;;;;;0.03;64.23;102118.91;4935390;29;20126;-72
2022/03/23 05:19:45;;;;;;;23.37;14.17;;;;;;;0.01;63.87;102117.94;4933577;29;20035;-72
2022/03/23 05:22:11;;;;;;;21.00;12.73;;;;;;;-0.01;65.28;102116.13;4933703;29;20050;-71
2022/03/23 05:24:37;;;;;;;22.30;14.50;;;;;;;0.00;64.79;102122.22;4930954;29;20084;-71
2022/03/23 05:27:03;;;;;;;25.00;15.97;;;;;;;0.03;64.44;102121.50;4931003;29;20133;-71
2022/03/23 05:29:29;;;;;;;23.93;13.47;;;;;;;0.09;64.11;102127.09;4931373;29;20052;-71
2022/03/23 05:31:54;;;;;;;19.80;13.20;;;;;;;0.15;64.78;102124.84;4929556;29;20042;-71
2022/03/23 05:34:20;;;;;;;18.23;11.27;;;;;;;0.21;63.94;102130.44;4931862;29;20047;-71
2022/03/23 05:36:45;;;;;;;21.13;12.00;;;;;;;0.27;63.98;102125.63;4929875;29;20145;-71
2022/03/23 05:39:11;;;;;;;21.47;12.97;;;;;;;0.33;63.54;102123.38;4935268;28;20039;-71
2022/03/23 05:41:36;;;;;;;20.73;13.20;;;;;;;0.40;64.02;102125.56;4932599;29;20044;-71
2022/03/23 05:44:02;;;;;;;24.73;15.27;;;;;;;0.45;63.46;102123.25;4934823;29;20138;-71
2022/03/23 05:46:27;;;;;;;21.43;13.63;;;;;;;0.51;63.53;102125.31;4934614;29;20054;-71
2022/03/23 05:48:53;;;;;;;20.93;12.70;;;;;;;0.55;63.89;102124.66;4934944;29;20046;-71
2022/03/23 05:51:19;;;;;;;19.93;12.23;;;;;;;0.58;63.53;102120.56;4935236;29;20071;-71
2022/03/23 05:53:44;;;;;;;20.93;13.00;;;;;;;0.67;64.10;102120.22;4935528;29;20047;-72
2022/03/23 05:56:09;;;;;;;22.07;13.50;;;;;;;0.77;63.75;102111.25;4935001;29;20058;-71
2022/03/23 05:58:35;;;;;;;22.85;14.63;;;;;;;0.86;63.65;102123.09;4930284;29;20040;-71
2022/03/23 06:01:02;;;;;;;24.55;14.82;;;;;;;0.93;63.34;102119.16;4934934;29;20402;-71
2022/03/23 06:03:27;;;;;;;22.55;13.38;;;;;;;0.99;63.12;102116.88;4931541;29;20032;-71
2022/03/23 06:05:52;;;;;;;19.23;12.32;;;;;;;1.08;63.02;102117.44;4934966;29;20539;-71
2022/03/23 06:08:18;;;;;;;20.40;13.73;;;;;;;1.19;62.93;102109.34;4934915;29;20031;-71
2022/03/23 06:10:43;;;;;;;21.67;14.82;;;;;;;1.31;62.67;102118.75;4934300;29;20035;-71
2022/03/23 06:13:09;;;;;;;31.10;16.25;;;;;;;1.44;62.75;102127.22;4934666;29;20103;-71
2022/03/23 06:15:34;;;;;;;19.30;12.40;;;;;;;1.54;62.99;102119.13;4934311;29;20039;-71
2022/03/23 06:18:00;;;;;;;21.80;14.43;;;;;;;1.62;62.69;102114.38;4934879;29;20376;-71
2022/03/23 06:20:25;;;;;;;26.27;16.23;;;;;;;1.70;62.18;102108.78;4934900;29;20039;-71
2022/03/23 06:22:51;;;;;;;25.00;15.95;;;;;;;1.77;61.61;102114.31;4934509;29;20036;-70
2022/03/23 06:25:16;;;;;;;30.35;18.20;;;;;;;1.89;61.98;102122.81;4934767;29;20047;-71
2022/03/23 06:27:42;;;;;;;31.25;18.10;;;;;;;2.00;61.65;102119.06;4934867;29;20082;-71
2022/03/23 06:30:08;;;;;;;27.30;16.60;;;;;;;2.09;60.58;102119.56;4934876;29;20031;-71
2022/03/23 06:32:33;;;;;;;22.70;14.55;;;;;;;2.18;60.68;102120.06;4934380;29;20124;-71
2022/03/23 06:35:00;;;;;;;31.33;16.65;;;;;;;2.31;61.02;102115.50;4934462;29;20044;-71
2022/03/23 06:37:26;;;;;;;26.83;17.40;;;;;;;2.45;60.71;102119.72;4934413;29;20043;-71
2022/03/23 06:39:52;;;;;;;25.75;18.13;;;;;;;2.60;61.25;102124.84;4933134;29;20054;-71
2022/03/23 06:42:17;;;;;;;32.40;20.08;;;;;;;2.70;61.62;102113.16;4934094;29;20122;-71
2022/03/23 06:44:43;;;;;;;40.42;25.30;;;;;;;2.82;61.42;102117.28;4934417;29;20047;-71
2022/03/23 06:47:08;;;;;;;45.03;23.65;;;;;;;2.98;61.29;102118.94;4933850;29;20032;-71
2022/03/23 06:49:34;;;;;;;25.70;18.35;;;;;;;3.13;60.58;102112.72;4934238;29;20074;-71
2022/03/23 06:51:59;;;;;;;25.92;15.15;;;;;;;3.23;60.01;102121.06;4934052;29;20051;-71
2022/03/23 06:54:24;;;;;;;17.50;12.75;;;;;;;3.29;60.16;102120.47;4933753;29;20593;-71
2022/03/23 06:56:51;;;;;;;18.27;12.65;;;;;;;3.36;60.02;102112.13;4933576;29;20418;-71
2022/03/23 06:59:18;;;;;;;17.77;12.07;;;;;;;3.48;59.39;102124.88;4930373;29;20043;-71
2022/03/23 07:01:43;;;;;;;21.70;13.70;;;;;;;3.58;59.32;102124.47;4933813;29;20475;-71
2022/03/23 07:04:09;;;;;;;18.80;11.57;;;;;;;3.71;59.05;102118.13;4934202;29;20130;-71
2022/03/23 07:06:34;;;;;;;19.35;13.35;;;;;;;3.81;59.33;102122.09;4933337;29;20078;-71
2022/03/23 07:09:59;;;;;;;22.58;13.70;;;;;;;3.90;58.59;102118.19;4933971;29;20060;-71
2022/03/23 07:11:54;;;;;;;24.52;15.07;;;;;;;4.06;58.50;102119.78;4936655;29;20098;-71
2022/03/23 07:14:19;;;;;;;20.63;14.63;;;;;;;4.22;57.72;102121.38;4933964;29;20118;-72
2022/03/23 07:16:45;;;;;;;20.48;14.48;;;;;;;4.36;58.33;102115.03;4934132;29;20122;-71
2022/03/23 07:19:11;;;;;;;21.13;14.98;;;;;;;4.54;57.78;102116.69;4930228;29;20031;-72
2022/03/23 07:21:37;;;;;;;19.95;15.23;;;;;;;4.70;57.63;102119.13;4933806;29;20118;-72
2022/03/23 07:24:02;;;;;;;23.00;14.15;;;;;;;4.91;57.30;102120.88;4933632;29;20439;-71
2022/03/23 07:26:28;;;;;;;22.38;13.00;;;;;;;5.10;56.95;102119.91;4933801;29;20507;-72
2022/03/23 07:28:53;;;;;;;20.90;11.82;;;;;;;5.28;56.72;102123.28;4933980;29;20039;-71
2022/03/23 07:31:18;;;;;;;21.20;12.32;;;;;;;5.46;55.86;102124.03;4932891;29;20078;-72
2022/03/23 07:33:44;;;;;;;17.95;11.80;;;;;;;5.65;55.03;102123.03;4932927;29;20064;-72
2022/03/23 07:36:12;;;;;;;21.05;12.75;;;;;;;5.85;54.44;102122.94;4932958;29;20579;-71
2022/03/23 07:38:38;;;;;;;19.63;13.00;;;;;;;6.09;53.08;102117.75;4931506;29;20047;-72
2022/03/23 07:41:03;;;;;;;17.63;12.07;;;;;;;6.28;52.09;102114.09;4932122;29;20043;-72
2022/03/23 07:43:29;;;;;;;19.10;11.98;;;;;;;6.46;51.18;102109.50;4929450;29;20042;-72
2022/03/23 07:45:54;;;;;;;18.10;12.15;;;;;;;6.68;50.25;102121.69;4933493;29;20062;-72
2022/03/23 07:48:22;;;;;;;19.55;12.32;;;;;;;6.84;49.97;102116.94;4933194;29;20031;-72
2022/03/23 07:50:48;;;;;;;23.05;13.50;;;;;;;6.99;50.10;102117.47;4929585;29;20086;-72
2022/03/23 07:53:14;;;;;;;21.77;14.02;;;;;;;7.18;49.67;102124.25;4932481;29;20142;-72
2022/03/23 07:55:40;;;;;;;20.63;12.35;;;;;;;7.28;49.89;102109.66;4932517;29;20048;-72
2022/03/23 07:58:05;;;;;;;19.23;13.25;;;;;;;7.38;49.56;102112.63;4931479;29;20047;-72
2022/03/23 08:00:31;;;;;;;18.50;12.13;;;;;;;7.52;49.39;102114.81;4932869;29;20130;-71
2022/03/23 08:02:56;;;;;;;18.60;11.65;;;;;;;7.62;48.08;102107.28;4932366;29;20032;-72
2022/03/23 08:05:21;;;;;;;16.42;11.63;;;;;;;7.78;48.16;102113.91;4929529;29;20517;-71
2022/03/23 08:07:47;;;;;;;16.75;11.07;;;;;;;7.92;47.49;102109.06;4933535;29;20047;-72
2022/03/23 08:10:12;;;;;;;18.60;11.27;;;;;;;8.04;46.17;102106.81;4933724;29;20032;-72
2022/03/23 08:12:37;;;;;;;18.33;10.98;;;;;;;8.22;46.00;102116.03;4926355;29;20051;-72
2022/03/23 08:15:03;;;;;;;18.52;11.88;;;;;;;8.36;45.56;102109.47;4929915;29;20031;-72
2022/03/23 08:17:29;;;;;;;21.92;11.90;;;;;;;8.49;44.88;102111.63;4933252;29;20042;-72
2022/03/23 08:22:38;;;;;;;16.02;11.25;;;;;;;8.65;43.88;102101.50;4931690;29;20079;-72
2022/03/23 08:25:04;;;;;;;17.88;11.32;;;;;;;8.77;44.15;102107.97;4933491;29;20062;-72
2022/03/23 08:27:29;;;;;;;17.30;11.10;;;;;;;8.87;44.35;102113.50;4931646;29;20491;-72
2022/03/23 08:29:55;;;;;;;15.30;11.00;;;;;;;8.96;44.26;102111.06;4932902;29;20046;-72
2022/03/23 08:32:22;;;;;;;16.38;11.85;;;;;;;9.06;44.04;102115.72;4933067;29;20043;-72
2022/03/23 08:34:49;;;;;;;18.63;12.55;;;;;;;9.19;44.10;102117.81;4933462;29;20046;-72
2022/03/23 08:37:14;;;;;;;18.65;13.18;;;;;;;9.38;44.16;102107.75;4929840;29;20053;-72
2022/03/23 08:39:40;;;;;;;19.33;12.05;;;;;;;9.53;43.49;102108.09;4932632;29;20027;-72
2022/03/23 08:42:06;;;;;;;18.20;11.23;;;;;;;9.62;42.99;102108.31;4931217;29;20486;-72
2022/03/23 08:44:31;;;;;;;22.15;13.07;;;;;;;9.71;43.20;102096.19;4935389;29;20518;-72
2022/03/23 08:46:56;;;;;;;19.20;12.18;;;;;;;9.81;43.16;102099.06;4935607;29;20487;-72
2022/03/23 08:49:22;;;;;;;21.20;12.20;;;;;;;9.89;42.67;102096.59;4936718;29;20028;-72
2022/03/23 08:51:47;;;;;;;18.00;11.98;;;;;;;9.98;43.15;102094.19;4936369;29;20047;-72
2022/03/23 08:54:12;;;;;;;22.27;12.48;;;;;;;10.04;42.73;102096.94;4936108;29;20099;-72
2022/03/23 08:56:37;;;;;;;17.23;12.40;;;;;;;10.13;43.05;102090.06;4929626;29;20099;-72
2022/03/23 08:59:03;;;;;;;16.77;11.98;;;;;;;10.34;41.96;102095.81;4936222;29;20036;-72
2022/03/23 09:01:28;;;;;;;18.10;12.52;;;;;;;10.50;42.32;102092.59;4935082;29;20054;-72
2022/03/23 09:03:55;;;;;;;18.33;12.23;;;;;;;10.70;40.78;102082.41;4936252;29;20511;-73
2022/03/23 09:06:21;;;;;;;18.63;12.13;;;;;;;10.75;40.94;102088.66;4935808;29;20035;-72
2022/03/23 09:08:46;;;;;;;17.83;11.73;;;;;;;10.82;40.98;102084.41;4934818;29;20491;-72
2022/03/23 09:11:11;;;;;;;16.70;12.15;;;;;;;10.89;40.39;102086.25;4935951;29;20521;-72
2022/03/23 09:13:37;;;;;;;19.23;12.82;;;;;;;10.95;40.65;102086.38;4935260;29;20043;-72
2022/03/23 09:16:03;;;;;;;20.83;12.20;;;;;;;11.16;40.43;102087.59;4936398;29;20039;-72
2022/03/23 09:18:28;;;;;;;16.80;12.40;;;;;;;11.35;38.78;102087.03;4936053;29;20028;-72
2022/03/23 09:20:54;;;;;;;17.13;11.52;;;;;;;11.49;39.26;102086.34;4935919;29;20503;-72
2022/03/23 09:23:20;;;;;;;17.10;12.30;;;;;;;11.56;38.51;102080.28;4935909;29;20039;-72
2022/03/23 09:25:46;;;;;;;16.42;12.32;;;;;;;11.63;38.01;102087.41;4936024;29;20047;-72
2022/03/23 09:28:11;;;;;;;18.95;13.63;;;;;;;11.66;37.61;102078.66;4935888;29;20115;-72
2022/03/23 09:30:37;;;;;;;18.90;12.65;;;;;;;11.73;37.56;102084.03;4935798;29;20042;-72
2022/03/23 09:33:02;;;;;;;16.65;12.50;;;;;;;11.79;37.31;102085.91;4935641;29;20047;-72
2022/03/23 09:35:28;;;;;;;18.38;13.32;;;;;;;11.92;37.43;102089.63;4935555;29;20043;-72
2022/03/23 09:37:56;;;;;;;20.20;13.45;;;;;;;11.94;37.12;102075.53;4935466;29;20036;-72
2022/03/23 09:40:27;;;;;;;17.17;13.07;;;;;;;12.04;37.06;102080.09;4935802;29;20106;-72
2022/03/23 09:43:01;;;;;;;24.52;13.82;;;;;;;12.15;37.15;102076.69;4934599;29;20030;-72
2022/03/23 09:46:08;;;;;;;16.80;12.63;;;;;;;12.26;37.10;102086.53;4935189;29;20118;-72
2022/03/23 09:48:17;;;;;;;23.95;13.63;;;;;;;12.35;36.57;102084.88;4930611;29;20052;-71
2022/03/23 09:50:46;;;;;;;19.20;14.43;;;;;;;12.47;35.97;102075.31;4935623;29;20040;-72
2022/03/23 09:53:12;;;;;;;19.85;14.27;;;;;;;12.60;36.08;102080.72;4935200;29;20051;-72
2022/03/23 09:55:38;;;;;;;19.45;14.40;;;;;;;12.69;35.55;102076.41;4935060;29;20039;-72
2022/03/23 09:58:05;;;;;;;19.52;14.85;;;;;;;12.73;35.33;102072.00;4931937;29;20060;-72
2022/03/23 10:00:38;;;;;;;20.60;15.82;;;;;;;12.78;35.15;102077.34;4935253;29;20075;-72
2022/03/23 10:03:42;;;;;;;19.23;13.60;;;;;;;12.87;35.01;102072.16;4935148;29;20047;-72
2022/03/23 10:06:25;;;;;;;19.90;15.07;;;;;;;12.99;35.70;102064.28;4932836;29;20051;-72
2022/03/23 10:09:11;;;;;;;19.63;14.57;;;;;;;13.15;35.64;102062.66;4932154;29;20035;-72
2022/03/23 10:12:13;;;;;;;19.17;13.98;;;;;;;13.31;34.82;102061.06;4931798;29;20454;-72
2022/03/23 10:14:47;;;;;;;21.55;13.93;;;;;;;13.37;34.88;102061.09;4927789;29;20035;-72
2022/03/23 10:17:50;;;;;;;21.67;15.18;;;;;;;13.46;34.98;102053.19;4932231;29;20036;-72
2022/03/23 10:20:16;;;;;;;21.05;15.90;;;;;;;13.54;34.71;102051.44;4934287;29;20047;-72
2022/03/23 10:22:53;;;;;;;18.40;14.88;;;;;;;13.70;34.06;102054.19;4934732;29;20434;-72
2022/03/23 10:25:20;;;;;;;20.33;15.90;;;;;;;13.79;33.98;102057.78;4934704;29;20043;-72
2022/03/23 10:27:47;;;;;;;21.30;16.23;;;;;;;13.84;33.86;102052.50;4934234;29;20040;-72
2022/03/23 10:30:14;;;;;;;20.77;14.73;;;;;;;13.92;32.91;102052.56;4934069;29;20035;-72
2022/03/23 10:32:43;;;;;;;22.25;15.20;;;;;;;14.01;33.46;102053.44;4934505;29;20042;-72
2022/03/23 10:35:15;;;;;;;24.80;17.55;;;;;;;14.14;33.00;102037.56;4934700;29;20046;-72
2022/03/23 10:37:41;;;;;;;21.65;15.43;;;;;;;14.19;32.86;102046.44;4934928;29;20090;-72
2022/03/23 10:40:11;;;;;;;21.60;16.20;;;;;;;14.35;32.71;102042.06;4934720;29;20058;-72
2022/03/23 10:42:39;;;;;;;18.92;14.68;;;;;;;14.48;32.93;102041.19;4934434;29;20032;-72
2022/03/23 10:45:20;;;;;;;20.52;14.70;;;;;;;14.52;32.37;102035.03;4934666;29;20442;-72
2022/03/23 10:47:48;;;;;;;17.55;14.25;;;;;;;14.57;32.75;102043.03;4934456;29;20040;-72
2022/03/23 10:50:15;;;;;;;19.90;15.30;;;;;;;14.63;32.39;102027.09;4934575;29;20047;-72
2022/03/23 10:53:05;;;;;;;23.20;15.23;;;;;;;14.70;31.56;102031.53;4934251;29;20040;-72
2022/03/23 10:55:32;;;;;;;23.80;18.75;;;;;;;14.79;31.94;102028.00;4932996;29;20035;-72
2022/03/23 10:58:00;;;;;;;33.85;26.85;;;;;;;14.85;31.86;102031.53;4932652;29;20054;-72
2022/03/23 11:00:29;;;;;;;47.20;36.10;;;;;;;14.99;31.80;102028.00;4932768;29;20054;-72
2022/03/23 11:02:55;;;;;;;39.13;30.63;;;;;;;15.13;32.25;102016.44;4933371;29;20031;-72
2022/03/23 11:05:34;;;;;;;24.33;17.33;;;;;;;15.13;31.78;102012.91;4933818;29;20040;-72
2022/03/23 11:08:07;;;;;;;21.55;16.23;;;;;;;15.20;30.17;102008.47;4932283;29;20090;-73
2022/03/23 11:16:31;;;;;;;18.02;15.32;;;;;;;15.50;29.21;102003.06;4926215;29;20031;-73
2022/03/23 11:18:58;;;;;;;18.40;15.43;;;;;;;15.59;29.34;101998.59;4933801;29;20035;-70
2022/03/23 11:21:24;;;;;;;17.25;14.60;;;;;;;15.57;28.71;101998.63;4929964;29;20040;-70
2022/03/23 11:23:49;;;;;;;24.17;14.65;;;;;;;15.63;27.78;101997.72;4927826;29;20051;-70
2022/03/23 11:26:15;;;;;;;16.45;13.23;;;;;;;15.75;27.13;101998.59;4928470;29;20035;-70
2022/03/23 11:28:44;;;;;;;18.85;14.15;;;;;;;15.90;27.53;101997.63;4928205;29;20040;-70
2022/03/23 11:31:11;;;;;;;19.45;14.68;;;;;;;15.96;26.13;101994.94;4926346;29;20047;-70
2022/03/23 11:33:37;;;;;;;17.40;14.45;;;;;;;15.92;27.19;101990.50;4928817;29;20042;-70